sensor_id;sensor_type;location;lat;lon;timestamp;P1;durP1;ratioP1;P2;durP2;ratioP2
66169;SDS011;52971;44.024;20.456;2022-10-16T00:00:41;66.28;;;38.63;;
66169;SDS011;52971;44.024;20.456;2022-10-16T00:03:08;60.78;;;37.10;;
66169;SDS011;52971;44.024;20.456;2022-10-16T00:05:40;61.42;;;37.67;;
66169;SDS011;52971;44.024;20.456;2022-10-16T00:08:07;59.80;;;38.08;;
66169;SDS011;52971;44.024;20.456;2022-10-16T00:10:33;60.53;;;38.05;;
66169;SDS011;52971;44.024;20.456;2022-10-16T00:12:59;68.97;;;41.75;;
66169;SDS011;52971;44.024;20.456;2022-10-16T00:15:25;60.92;;;37.75;;
66169;SDS011;52971;44.024;20.456;2022-10-16T00:17:50;60.25;;;36.00;;
66169;SDS011;52971;44.024;20.456;2022-10-16T00:20:15;57.40;;;34.83;;
66169;SDS011;52971;44.024;20.456;2022-10-16T00:22:41;53.45;;;30.95;;
66169;SDS011;52971;44.024;20.456;2022-10-16T00:25:06;48.90;;;26.67;;
66169;SDS011;52971;44.024;20.456;2022-10-16T00:27:32;39.05;;;25.48;;
66169;SDS011;52971;44.024;20.456;2022-10-16T00:29:58;38.70;;;24.15;;
66169;SDS011;52971;44.024;20.456;2022-10-16T00:32:24;41.40;;;25.05;;
66169;SDS011;52971;44.024;20.456;2022-10-16T00:34:49;36.65;;;24.05;;
66169;SDS011;52971;44.024;20.456;2022-10-16T00:37:15;38.45;;;23.95;;
66169;SDS011;52971;44.024;20.456;2022-10-16T00:39:41;42.08;;;26.27;;
66169;SDS011;52971;44.024;20.456;2022-10-16T00:42:09;45.33;;;28.33;;
66169;SDS011;52971;44.024;20.456;2022-10-16T00:44:50;45.63;;;29.05;;
66169;SDS011;52971;44.024;20.456;2022-10-16T00:47:39;45.20;;;27.88;;
66169;SDS011;52971;44.024;20.456;2022-10-16T00:52:47;45.35;;;27.10;;
66169;SDS011;52971;44.024;20.456;2022-10-16T00:55:14;44.45;;;28.75;;
66169;SDS011;52971;44.024;20.456;2022-10-16T00:57:40;48.60;;;28.63;;
66169;SDS011;52971;44.024;20.456;2022-10-16T01:00:08;41.15;;;25.27;;
66169;SDS011;52971;44.024;20.456;2022-10-16T01:02:35;38.13;;;24.70;;
66169;SDS011;52971;44.024;20.456;2022-10-16T01:05:00;43.45;;;24.50;;
66169;SDS011;52971;44.024;20.456;2022-10-16T01:13:06;36.42;;;22.52;;
66169;SDS011;52971;44.024;20.456;2022-10-16T01:15:47;34.47;;;19.95;;
66169;SDS011;52971;44.024;20.456;2022-10-16T01:18:23;22.55;;;14.98;;
66169;SDS011;52971;44.024;20.456;2022-10-16T01:20:54;23.33;;;14.07;;
66169;SDS011;52971;44.024;20.456;2022-10-16T01:32:19;29.15;;;15.57;;
66169;SDS011;52971;44.024;20.456;2022-10-16T01:35:16;27.05;;;16.25;;
66169;SDS011;52971;44.024;20.456;2022-10-16T01:40:14;23.52;;;14.40;;
66169;SDS011;52971;44.024;20.456;2022-10-16T01:42:42;20.63;;;12.88;;
66169;SDS011;52971;44.024;20.456;2022-10-16T01:45:13;24.92;;;13.85;;
66169;SDS011;52971;44.024;20.456;2022-10-16T01:47:43;19.85;;;12.88;;
66169;SDS011;52971;44.024;20.456;2022-10-16T01:50:10;20.90;;;12.50;;
66169;SDS011;52971;44.024;20.456;2022-10-16T01:52:39;20.88;;;13.25;;
66169;SDS011;52971;44.024;20.456;2022-10-16T01:55:07;22.35;;;13.63;;
66169;SDS011;52971;44.024;20.456;2022-10-16T01:57:36;20.88;;;13.73;;
66169;SDS011;52971;44.024;20.456;2022-10-16T02:00:07;25.27;;;16.05;;
66169;SDS011;52971;44.024;20.456;2022-10-16T02:02:35;21.30;;;15.25;;
66169;SDS011;52971;44.024;20.456;2022-10-16T02:07:50;26.13;;;15.63;;
66169;SDS011;52971;44.024;20.456;2022-10-16T02:10:16;24.20;;;14.73;;
66169;SDS011;52971;44.024;20.456;2022-10-16T02:12:44;22.58;;;14.77;;
66169;SDS011;52971;44.024;20.456;2022-10-16T02:15:15;24.33;;;15.15;;
66169;SDS011;52971;44.024;20.456;2022-10-16T02:17:40;20.88;;;14.25;;
66169;SDS011;52971;44.024;20.456;2022-10-16T02:20:06;25.20;;;15.23;;
66169;SDS011;52971;44.024;20.456;2022-10-16T02:22:39;19.95;;;13.88;;
66169;SDS011;52971;44.024;20.456;2022-10-16T02:30:51;21.10;;;14.75;;
66169;SDS011;52971;44.024;20.456;2022-10-16T02:33:22;27.00;;;16.90;;
66169;SDS011;52971;44.024;20.456;2022-10-16T02:35:50;26.92;;;17.75;;
66169;SDS011;52971;44.024;20.456;2022-10-16T02:38:16;40.35;;;23.42;;
66169;SDS011;52971;44.024;20.456;2022-10-16T02:40:43;44.33;;;27.15;;
66169;SDS011;52971;44.024;20.456;2022-10-16T02:43:09;67.60;;;34.40;;
66169;SDS011;52971;44.024;20.456;2022-10-16T02:45:35;48.22;;;28.40;;
66169;SDS011;52971;44.024;20.456;2022-10-16T02:48:01;58.10;;;30.83;;
66169;SDS011;52971;44.024;20.456;2022-10-16T02:50:27;69.72;;;36.67;;
66169;SDS011;52971;44.024;20.456;2022-10-16T02:52:52;48.35;;;27.27;;
66169;SDS011;52971;44.024;20.456;2022-10-16T02:55:18;49.80;;;26.75;;
66169;SDS011;52971;44.024;20.456;2022-10-16T02:57:44;45.58;;;26.52;;
66169;SDS011;52971;44.024;20.456;2022-10-16T03:00:10;56.55;;;33.30;;
66169;SDS011;52971;44.024;20.456;2022-10-16T03:02:38;56.15;;;33.20;;
66169;SDS011;52971;44.024;20.456;2022-10-16T03:05:04;57.05;;;32.88;;
66169;SDS011;52971;44.024;20.456;2022-10-16T03:07:31;43.65;;;26.90;;
66169;SDS011;52971;44.024;20.456;2022-10-16T03:10:11;38.85;;;25.80;;
66169;SDS011;52971;44.024;20.456;2022-10-16T03:12:37;33.83;;;22.35;;
66169;SDS011;52971;44.024;20.456;2022-10-16T03:15:03;36.13;;;23.17;;
66169;SDS011;52971;44.024;20.456;2022-10-16T03:17:28;35.28;;;22.10;;
66169;SDS011;52971;44.024;20.456;2022-10-16T03:19:54;40.08;;;21.73;;
66169;SDS011;52971;44.024;20.456;2022-10-16T03:22:19;32.85;;;21.00;;
66169;SDS011;52971;44.024;20.456;2022-10-16T03:24:44;38.33;;;21.92;;
66169;SDS011;52971;44.024;20.456;2022-10-16T03:27:10;44.78;;;25.15;;
66169;SDS011;52971;44.024;20.456;2022-10-16T03:29:35;39.53;;;23.92;;
66169;SDS011;52971;44.024;20.456;2022-10-16T03:32:01;53.55;;;27.35;;
66169;SDS011;52971;44.024;20.456;2022-10-16T03:34:26;62.30;;;32.47;;
66169;SDS011;52971;44.024;20.456;2022-10-16T03:36:52;59.45;;;30.63;;
66169;SDS011;52971;44.024;20.456;2022-10-16T03:39:18;59.03;;;28.58;;
66169;SDS011;52971;44.024;20.456;2022-10-16T03:41:44;58.22;;;29.70;;
66169;SDS011;52971;44.024;20.456;2022-10-16T03:44:11;45.95;;;24.73;;
66169;SDS011;52971;44.024;20.456;2022-10-16T03:46:37;32.38;;;17.33;;
66169;SDS011;52971;44.024;20.456;2022-10-16T03:49:02;43.30;;;23.65;;
66169;SDS011;52971;44.024;20.456;2022-10-16T03:51:28;48.67;;;26.73;;
66169;SDS011;52971;44.024;20.456;2022-10-16T03:53:53;48.50;;;26.55;;
66169;SDS011;52971;44.024;20.456;2022-10-16T03:56:19;36.10;;;21.75;;
66169;SDS011;52971;44.024;20.456;2022-10-16T03:58:44;39.38;;;20.77;;
66169;SDS011;52971;44.024;20.456;2022-10-16T04:01:10;36.45;;;19.67;;
66169;SDS011;52971;44.024;20.456;2022-10-16T04:03:35;31.35;;;16.95;;
66169;SDS011;52971;44.024;20.456;2022-10-16T04:06:01;29.75;;;17.15;;
66169;SDS011;52971;44.024;20.456;2022-10-16T04:08:26;24.75;;;15.50;;
66169;SDS011;52971;44.024;20.456;2022-10-16T04:10:52;31.55;;;17.80;;
66169;SDS011;52971;44.024;20.456;2022-10-16T04:13:17;28.85;;;17.30;;
66169;SDS011;52971;44.024;20.456;2022-10-16T04:15:44;33.45;;;18.83;;
66169;SDS011;52971;44.024;20.456;2022-10-16T04:18:10;21.77;;;14.15;;
66169;SDS011;52971;44.024;20.456;2022-10-16T04:20:35;22.60;;;14.80;;
66169;SDS011;52971;44.024;20.456;2022-10-16T04:23:00;22.30;;;13.65;;
66169;SDS011;52971;44.024;20.456;2022-10-16T04:25:26;22.30;;;13.20;;
66169;SDS011;52971;44.024;20.456;2022-10-16T04:27:53;20.75;;;13.63;;
66169;SDS011;52971;44.024;20.456;2022-10-16T04:30:19;20.92;;;13.07;;
66169;SDS011;52971;44.024;20.456;2022-10-16T04:32:48;17.75;;;12.18;;
66169;SDS011;52971;44.024;20.456;2022-10-16T04:35:15;20.60;;;11.68;;
66169;SDS011;52971;44.024;20.456;2022-10-16T04:37:42;25.50;;;15.55;;
66169;SDS011;52971;44.024;20.456;2022-10-16T04:40:07;50.63;;;24.88;;
66169;SDS011;52971;44.024;20.456;2022-10-16T04:42:33;66.38;;;31.90;;
66169;SDS011;52971;44.024;20.456;2022-10-16T04:44:58;59.53;;;30.40;;
66169;SDS011;52971;44.024;20.456;2022-10-16T04:47:24;60.20;;;30.48;;
66169;SDS011;52971;44.024;20.456;2022-10-16T04:49:49;54.85;;;29.48;;
66169;SDS011;52971;44.024;20.456;2022-10-16T04:52:15;55.20;;;29.05;;
66169;SDS011;52971;44.024;20.456;2022-10-16T04:54:40;44.20;;;25.92;;
66169;SDS011;52971;44.024;20.456;2022-10-16T04:57:06;35.08;;;20.83;;
66169;SDS011;52971;44.024;20.456;2022-10-16T04:59:31;30.75;;;16.23;;
66169;SDS011;52971;44.024;20.456;2022-10-16T05:01:57;23.10;;;14.13;;
66169;SDS011;52971;44.024;20.456;2022-10-16T05:04:22;22.15;;;14.07;;
66169;SDS011;52971;44.024;20.456;2022-10-16T05:06:48;30.73;;;19.27;;
66169;SDS011;52971;44.024;20.456;2022-10-16T05:09:14;39.60;;;22.40;;
66169;SDS011;52971;44.024;20.456;2022-10-16T05:11:39;31.25;;;19.27;;
66169;SDS011;52971;44.024;20.456;2022-10-16T05:14:05;45.17;;;24.50;;
66169;SDS011;52971;44.024;20.456;2022-10-16T05:16:30;39.53;;;24.52;;
66169;SDS011;52971;44.024;20.456;2022-10-16T05:18:56;39.75;;;24.90;;
66169;SDS011;52971;44.024;20.456;2022-10-16T05:21:22;45.63;;;26.75;;
66169;SDS011;52971;44.024;20.456;2022-10-16T05:23:47;36.95;;;23.85;;
66169;SDS011;52971;44.024;20.456;2022-10-16T05:26:13;30.80;;;20.55;;
66169;SDS011;52971;44.024;20.456;2022-10-16T05:28:38;35.85;;;21.23;;
66169;SDS011;52971;44.024;20.456;2022-10-16T05:31:04;31.30;;;19.73;;
66169;SDS011;52971;44.024;20.456;2022-10-16T05:33:31;27.92;;;17.35;;
66169;SDS011;52971;44.024;20.456;2022-10-16T05:36:00;23.40;;;14.85;;
66169;SDS011;52971;44.024;20.456;2022-10-16T05:38:26;23.35;;;14.85;;
66169;SDS011;52971;44.024;20.456;2022-10-16T05:40:52;25.98;;;15.40;;
66169;SDS011;52971;44.024;20.456;2022-10-16T05:43:18;18.38;;;11.48;;
66169;SDS011;52971;44.024;20.456;2022-10-16T05:45:44;17.10;;;11.15;;
66169;SDS011;52971;44.024;20.456;2022-10-16T05:48:09;15.65;;;11.07;;
66169;SDS011;52971;44.024;20.456;2022-10-16T05:50:35;20.00;;;12.30;;
66169;SDS011;52971;44.024;20.456;2022-10-16T05:53:00;23.05;;;14.75;;
66169;SDS011;52971;44.024;20.456;2022-10-16T05:55:25;25.98;;;12.55;;
66169;SDS011;52971;44.024;20.456;2022-10-16T05:57:53;19.27;;;13.13;;
66169;SDS011;52971;44.024;20.456;2022-10-16T06:00:19;22.40;;;14.13;;
66169;SDS011;52971;44.024;20.456;2022-10-16T06:02:45;33.88;;;15.85;;
66169;SDS011;52971;44.024;20.456;2022-10-16T06:05:11;21.08;;;14.45;;
66169;SDS011;52971;44.024;20.456;2022-10-16T06:07:36;21.10;;;14.30;;
66169;SDS011;52971;44.024;20.456;2022-10-16T06:10:02;21.65;;;13.50;;
66169;SDS011;52971;44.024;20.456;2022-10-16T06:12:29;19.00;;;13.35;;
66169;SDS011;52971;44.024;20.456;2022-10-16T06:14:54;26.65;;;14.63;;
66169;SDS011;52971;44.024;20.456;2022-10-16T06:17:19;22.58;;;14.75;;
66169;SDS011;52971;44.024;20.456;2022-10-16T06:19:45;26.75;;;13.93;;
66169;SDS011;52971;44.024;20.456;2022-10-16T06:22:10;19.02;;;12.30;;
66169;SDS011;52971;44.024;20.456;2022-10-16T06:24:36;18.63;;;10.32;;
66169;SDS011;52971;44.024;20.456;2022-10-16T06:27:02;14.65;;;9.82;;
66169;SDS011;52971;44.024;20.456;2022-10-16T06:29:29;20.27;;;11.65;;
66169;SDS011;52971;44.024;20.456;2022-10-16T06:31:54;15.82;;;10.82;;
66169;SDS011;52971;44.024;20.456;2022-10-16T06:34:19;19.45;;;13.85;;
66169;SDS011;52971;44.024;20.456;2022-10-16T06:36:45;17.50;;;12.07;;
66169;SDS011;52971;44.024;20.456;2022-10-16T06:39:10;18.83;;;11.80;;
66169;SDS011;52971;44.024;20.456;2022-10-16T06:41:36;16.20;;;10.63;;
66169;SDS011;52971;44.024;20.456;2022-10-16T06:44:04;14.93;;;11.40;;
66169;SDS011;52971;44.024;20.456;2022-10-16T06:46:31;19.38;;;12.93;;
66169;SDS011;52971;44.024;20.456;2022-10-16T06:48:57;20.10;;;11.38;;
66169;SDS011;52971;44.024;20.456;2022-10-16T06:51:23;22.73;;;13.80;;
66169;SDS011;52971;44.024;20.456;2022-10-16T06:53:51;19.23;;;11.98;;
66169;SDS011;52971;44.024;20.456;2022-10-16T06:56:19;17.25;;;11.07;;
66169;SDS011;52971;44.024;20.456;2022-10-16T06:58:47;22.05;;;13.20;;
66169;SDS011;52971;44.024;20.456;2022-10-16T07:01:13;19.52;;;11.38;;
66169;SDS011;52971;44.024;20.456;2022-10-16T07:03:41;17.67;;;11.15;;
66169;SDS011;52971;44.024;20.456;2022-10-16T07:06:08;15.65;;;10.55;;
66169;SDS011;52971;44.024;20.456;2022-10-16T07:08:35;18.17;;;11.65;;
66169;SDS011;52971;44.024;20.456;2022-10-16T07:11:04;14.13;;;10.68;;
66169;SDS011;52971;44.024;20.456;2022-10-16T07:13:35;13.93;;;9.40;;
66169;SDS011;52971;44.024;20.456;2022-10-16T07:16:08;14.82;;;10.50;;
66169;SDS011;52971;44.024;20.456;2022-10-16T07:18:37;14.75;;;9.75;;
66169;SDS011;52971;44.024;20.456;2022-10-16T07:21:14;15.30;;;10.88;;
66169;SDS011;52971;44.024;20.456;2022-10-16T07:23:42;14.13;;;9.55;;
66169;SDS011;52971;44.024;20.456;2022-10-16T07:26:08;15.48;;;8.75;;
66169;SDS011;52971;44.024;20.456;2022-10-16T07:28:35;13.60;;;9.55;;
66169;SDS011;52971;44.024;20.456;2022-10-16T07:31:04;13.82;;;7.60;;
66169;SDS011;52971;44.024;20.456;2022-10-16T07:33:32;12.25;;;8.13;;
66169;SDS011;52971;44.024;20.456;2022-10-16T07:35:57;10.38;;;7.47;;
66169;SDS011;52971;44.024;20.456;2022-10-16T07:38:23;7.15;;;5.32;;
66169;SDS011;52971;44.024;20.456;2022-10-16T07:40:55;11.38;;;6.68;;
66169;SDS011;52971;44.024;20.456;2022-10-16T07:43:25;12.40;;;6.95;;
66169;SDS011;52971;44.024;20.456;2022-10-16T07:45:51;4.80;;;3.20;;
66169;SDS011;52971;44.024;20.456;2022-10-16T07:48:17;8.13;;;3.67;;
66169;SDS011;52971;44.024;20.456;2022-10-16T07:50:44;4.70;;;3.83;;
66169;SDS011;52971;44.024;20.456;2022-10-16T07:53:10;6.25;;;3.50;;
66169;SDS011;52971;44.024;20.456;2022-10-16T07:55:37;4.53;;;3.08;;
66169;SDS011;52971;44.024;20.456;2022-10-16T07:58:03;5.15;;;2.88;;
66169;SDS011;52971;44.024;20.456;2022-10-16T08:00:29;4.90;;;2.92;;
66169;SDS011;52971;44.024;20.456;2022-10-16T08:02:56;5.00;;;3.30;;
66169;SDS011;52971;44.024;20.456;2022-10-16T08:05:25;6.90;;;2.88;;
66169;SDS011;52971;44.024;20.456;2022-10-16T08:07:54;3.20;;;2.65;;
66169;SDS011;52971;44.024;20.456;2022-10-16T08:10:20;5.88;;;3.13;;
66169;SDS011;52971;44.024;20.456;2022-10-16T08:12:47;5.65;;;2.85;;
66169;SDS011;52971;44.024;20.456;2022-10-16T08:15:12;6.80;;;2.72;;
66169;SDS011;52971;44.024;20.456;2022-10-16T08:17:38;4.55;;;2.85;;
66169;SDS011;52971;44.024;20.456;2022-10-16T08:20:03;3.50;;;2.28;;
66169;SDS011;52971;44.024;20.456;2022-10-16T08:22:29;4.07;;;3.00;;
66169;SDS011;52971;44.024;20.456;2022-10-16T08:24:55;5.53;;;3.03;;
66169;SDS011;52971;44.024;20.456;2022-10-16T08:27:20;2.50;;;1.95;;
66169;SDS011;52971;44.024;20.456;2022-10-16T08:29:46;4.57;;;2.25;;
66169;SDS011;52971;44.024;20.456;2022-10-16T08:32:13;4.00;;;1.88;;
66169;SDS011;52971;44.024;20.456;2022-10-16T08:34:39;4.78;;;2.60;;
66169;SDS011;52971;44.024;20.456;2022-10-16T08:37:04;3.88;;;2.03;;
66169;SDS011;52971;44.024;20.456;2022-10-16T08:39:30;4.63;;;2.75;;
66169;SDS011;52971;44.024;20.456;2022-10-16T08:50:19;2.95;;;2.22;;
66169;SDS011;52971;44.024;20.456;2022-10-16T08:52:53;4.43;;;2.13;;
66169;SDS011;52971;44.024;20.456;2022-10-16T08:55:41;3.10;;;2.03;;
66169;SDS011;52971;44.024;20.456;2022-10-16T08:58:10;3.28;;;2.10;;
66169;SDS011;52971;44.024;20.456;2022-10-16T09:00:38;9.05;;;4.80;;
66169;SDS011;52971;44.024;20.456;2022-10-16T09:08:15;4.03;;;3.00;;
66169;SDS011;52971;44.024;20.456;2022-10-16T09:10:57;4.68;;;3.83;;
66169;SDS011;52971;44.024;20.456;2022-10-16T09:16:21;6.88;;;4.43;;
66169;SDS011;52971;44.024;20.456;2022-10-16T09:21:45;6.88;;;2.90;;
66169;SDS011;52971;44.024;20.456;2022-10-16T09:24:19;4.75;;;3.40;;
66169;SDS011;52971;44.024;20.456;2022-10-16T09:26:47;3.42;;;2.05;;
66169;SDS011;52971;44.024;20.456;2022-10-16T09:29:16;3.35;;;2.20;;
66169;SDS011;52971;44.024;20.456;2022-10-16T09:31:45;3.38;;;2.10;;
66169;SDS011;52971;44.024;20.456;2022-10-16T09:37:01;2.92;;;1.90;;
66169;SDS011;52971;44.024;20.456;2022-10-16T09:39:29;3.80;;;2.35;;
66169;SDS011;52971;44.024;20.456;2022-10-16T09:41:54;2.33;;;2.10;;
66169;SDS011;52971;44.024;20.456;2022-10-16T09:44:23;3.67;;;1.95;;
66169;SDS011;52971;44.024;20.456;2022-10-16T09:47:01;2.92;;;1.88;;
66169;SDS011;52971;44.024;20.456;2022-10-16T09:49:30;3.13;;;2.80;;
66169;SDS011;52971;44.024;20.456;2022-10-16T09:52:11;6.97;;;2.90;;
66169;SDS011;52971;44.024;20.456;2022-10-16T09:54:48;4.72;;;2.05;;
66169;SDS011;52971;44.024;20.456;2022-10-16T09:57:22;6.15;;;2.70;;
66169;SDS011;52971;44.024;20.456;2022-10-16T09:59:49;7.00;;;2.40;;
66169;SDS011;52971;44.024;20.456;2022-10-16T10:02:17;4.00;;;2.00;;
66169;SDS011;52971;44.024;20.456;2022-10-16T10:04:53;3.83;;;2.20;;
66169;SDS011;52971;44.024;20.456;2022-10-16T10:07:32;9.20;;;4.80;;
66169;SDS011;52971;44.024;20.456;2022-10-16T10:10:01;10.38;;;5.78;;
66169;SDS011;52971;44.024;20.456;2022-10-16T10:12:30;9.10;;;5.15;;
66169;SDS011;52971;44.024;20.456;2022-10-16T10:15:04;12.50;;;6.18;;
66169;SDS011;52971;44.024;20.456;2022-10-16T10:17:32;7.20;;;3.97;;
66169;SDS011;52971;44.024;20.456;2022-10-16T10:19:59;4.65;;;2.70;;
66169;SDS011;52971;44.024;20.456;2022-10-16T10:38:29;4.50;;;3.13;;
66169;SDS011;52971;44.024;20.456;2022-10-16T10:41:04;4.18;;;2.72;;
66169;SDS011;52971;44.024;20.456;2022-10-16T10:46:20;8.18;;;3.92;;
66169;SDS011;52971;44.024;20.456;2022-10-16T10:54:32;8.15;;;3.58;;
66169;SDS011;52971;44.024;20.456;2022-10-16T10:57:22;5.03;;;3.03;;
66169;SDS011;52971;44.024;20.456;2022-10-16T11:02:25;4.57;;;3.85;;
66169;SDS011;52971;44.024;20.456;2022-10-16T11:07:43;3.58;;;2.78;;
66169;SDS011;52971;44.024;20.456;2022-10-16T11:10:18;3.40;;;2.30;;
66169;SDS011;52971;44.024;20.456;2022-10-16T11:12:48;4.20;;;2.10;;
66169;SDS011;52971;44.024;20.456;2022-10-16T11:15:36;3.30;;;2.38;;
66169;SDS011;52971;44.024;20.456;2022-10-16T11:18:07;3.00;;;1.85;;
66169;SDS011;52971;44.024;20.456;2022-10-16T11:20:42;3.88;;;2.45;;
66169;SDS011;52971;44.024;20.456;2022-10-16T11:23:21;6.05;;;3.05;;
66169;SDS011;52971;44.024;20.456;2022-10-16T11:25:48;8.43;;;2.97;;
66169;SDS011;52971;44.024;20.456;2022-10-16T11:28:14;4.80;;;2.50;;
66169;SDS011;52971;44.024;20.456;2022-10-16T11:30:57;3.90;;;2.47;;
66169;SDS011;52971;44.024;20.456;2022-10-16T11:33:30;5.03;;;3.70;;
66169;SDS011;52971;44.024;20.456;2022-10-16T11:39:02;9.05;;;2.80;;
66169;SDS011;52971;44.024;20.456;2022-10-16T11:41:39;3.40;;;2.40;;
66169;SDS011;52971;44.024;20.456;2022-10-16T11:49:30;4.75;;;2.60;;
66169;SDS011;52971;44.024;20.456;2022-10-16T11:55:21;4.75;;;2.97;;
66169;SDS011;52971;44.024;20.456;2022-10-16T11:57:33;3.85;;;2.25;;
66169;SDS011;52971;44.024;20.456;2022-10-16T12:00:47;4.18;;;2.42;;
66169;SDS011;52971;44.024;20.456;2022-10-16T12:03:12;3.83;;;3.08;;
66169;SDS011;52971;44.024;20.456;2022-10-16T12:10:42;3.13;;;2.03;;
66169;SDS011;52971;44.024;20.456;2022-10-16T12:16:06;4.05;;;3.22;;
66169;SDS011;52971;44.024;20.456;2022-10-16T12:18:38;6.40;;;2.95;;
66169;SDS011;52971;44.024;20.456;2022-10-16T12:21:09;6.03;;;2.53;;
66169;SDS011;52971;44.024;20.456;2022-10-16T12:23:47;4.35;;;2.97;;
66169;SDS011;52971;44.024;20.456;2022-10-16T12:26:14;4.63;;;2.55;;
66169;SDS011;52971;44.024;20.456;2022-10-16T12:28:50;6.43;;;3.17;;
66169;SDS011;52971;44.024;20.456;2022-10-16T12:31:17;10.27;;;4.45;;
66169;SDS011;52971;44.024;20.456;2022-10-16T12:33:53;6.22;;;3.80;;
66169;SDS011;52971;44.024;20.456;2022-10-16T12:36:29;10.23;;;3.80;;
66169;SDS011;52971;44.024;20.456;2022-10-16T12:38:57;4.78;;;3.13;;
66169;SDS011;52971;44.024;20.456;2022-10-16T12:41:25;5.60;;;3.33;;
66169;SDS011;52971;44.024;20.456;2022-10-16T12:43:56;6.45;;;3.67;;
66169;SDS011;52971;44.024;20.456;2022-10-16T12:46:23;5.85;;;4.55;;
66169;SDS011;52971;44.024;20.456;2022-10-16T12:49:37;5.13;;;3.50;;
66169;SDS011;52971;44.024;20.456;2022-10-16T12:51:46;6.88;;;3.92;;
66169;SDS011;52971;44.024;20.456;2022-10-16T12:54:14;10.05;;;3.50;;
66169;SDS011;52971;44.024;20.456;2022-10-16T12:56:48;5.15;;;4.00;;
66169;SDS011;52971;44.024;20.456;2022-10-16T12:59:25;4.97;;;3.40;;
66169;SDS011;52971;44.024;20.456;2022-10-16T13:13:05;7.65;;;3.42;;
66169;SDS011;52971;44.024;20.456;2022-10-16T13:22:22;8.95;;;4.25;;
66169;SDS011;52971;44.024;20.456;2022-10-16T13:30:15;5.55;;;3.45;;
66169;SDS011;52971;44.024;20.456;2022-10-16T13:32:45;7.75;;;3.85;;
66169;SDS011;52971;44.024;20.456;2022-10-16T13:35:20;7.47;;;3.20;;
66169;SDS011;52971;44.024;20.456;2022-10-16T13:37:48;3.67;;;2.53;;
66169;SDS011;52971;44.024;20.456;2022-10-16T13:40:22;5.60;;;3.67;;
66169;SDS011;52971;44.024;20.456;2022-10-16T13:42:49;7.40;;;4.70;;
66169;SDS011;52971;44.024;20.456;2022-10-16T13:45:25;5.60;;;3.72;;
66169;SDS011;52971;44.024;20.456;2022-10-16T13:48:01;4.43;;;3.67;;
66169;SDS011;52971;44.024;20.456;2022-10-16T13:50:27;4.95;;;3.53;;
66169;SDS011;52971;44.024;20.456;2022-10-16T13:53:02;6.72;;;3.80;;
66169;SDS011;52971;44.024;20.456;2022-10-16T13:55:32;3.90;;;3.40;;
66169;SDS011;52971;44.024;20.456;2022-10-16T13:58:05;32.78;;;26.23;;
66169;SDS011;52971;44.024;20.456;2022-10-16T14:00:32;7.80;;;4.85;;
66169;SDS011;52971;44.024;20.456;2022-10-16T14:03:05;11.98;;;8.65;;
66169;SDS011;52971;44.024;20.456;2022-10-16T14:05:36;6.40;;;3.78;;
66169;SDS011;52971;44.024;20.456;2022-10-16T14:08:18;7.88;;;3.88;;
66169;SDS011;52971;44.024;20.456;2022-10-16T14:10:47;5.53;;;4.22;;
66169;SDS011;52971;44.024;20.456;2022-10-16T14:13:19;7.28;;;4.55;;
66169;SDS011;52971;44.024;20.456;2022-10-16T14:15:51;5.20;;;3.78;;
66169;SDS011;52971;44.024;20.456;2022-10-16T14:18:18;9.55;;;4.80;;
66169;SDS011;52971;44.024;20.456;2022-10-16T14:20:46;6.03;;;4.20;;
66169;SDS011;52971;44.024;20.456;2022-10-16T14:23:21;7.10;;;3.83;;
66169;SDS011;52971;44.024;20.456;2022-10-16T14:25:46;8.77;;;5.20;;
66169;SDS011;52971;44.024;20.456;2022-10-16T14:28:20;8.02;;;4.63;;
66169;SDS011;52971;44.024;20.456;2022-10-16T14:30:56;7.38;;;4.55;;
66169;SDS011;52971;44.024;20.456;2022-10-16T14:40:57;8.20;;;5.43;;
66169;SDS011;52971;44.024;20.456;2022-10-16T14:43:27;8.75;;;5.15;;
66169;SDS011;52971;44.024;20.456;2022-10-16T14:45:57;8.98;;;5.50;;
66169;SDS011;52971;44.024;20.456;2022-10-16T14:48:22;10.95;;;7.57;;
66169;SDS011;52971;44.024;20.456;2022-10-16T14:50:49;13.13;;;6.75;;
66169;SDS011;52971;44.024;20.456;2022-10-16T14:53:15;10.18;;;5.85;;
66169;SDS011;52971;44.024;20.456;2022-10-16T14:55:41;12.40;;;6.40;;
66169;SDS011;52971;44.024;20.456;2022-10-16T14:58:14;9.15;;;5.82;;
66169;SDS011;52971;44.024;20.456;2022-10-16T15:00:42;9.20;;;6.10;;
66169;SDS011;52971;44.024;20.456;2022-10-16T15:03:08;10.10;;;7.72;;
66169;SDS011;52971;44.024;20.456;2022-10-16T15:05:33;13.00;;;8.88;;
66169;SDS011;52971;44.024;20.456;2022-10-16T15:07:59;15.80;;;10.57;;
66169;SDS011;52971;44.024;20.456;2022-10-16T15:10:25;15.50;;;10.95;;
66169;SDS011;52971;44.024;20.456;2022-10-16T15:12:52;16.55;;;10.75;;
66169;SDS011;52971;44.024;20.456;2022-10-16T15:15:23;10.00;;;7.63;;
66169;SDS011;52971;44.024;20.456;2022-10-16T15:18:03;17.80;;;10.93;;
66169;SDS011;52971;44.024;20.456;2022-10-16T15:20:31;15.88;;;11.30;;
66169;SDS011;52971;44.024;20.456;2022-10-16T15:22:59;13.65;;;11.27;;
66169;SDS011;52971;44.024;20.456;2022-10-16T15:28:07;20.80;;;16.25;;
66169;SDS011;52971;44.024;20.456;2022-10-16T15:30:34;41.58;;;21.33;;
66169;SDS011;52971;44.024;20.456;2022-10-16T15:33:00;24.17;;;15.95;;
66169;SDS011;52971;44.024;20.456;2022-10-16T15:35:26;20.27;;;15.02;;
66169;SDS011;52971;44.024;20.456;2022-10-16T15:37:51;16.85;;;10.38;;
66169;SDS011;52971;44.024;20.456;2022-10-16T15:40:17;23.90;;;16.60;;
66169;SDS011;52971;44.024;20.456;2022-10-16T15:42:43;40.40;;;27.17;;
66169;SDS011;52971;44.024;20.456;2022-10-16T15:45:10;42.20;;;28.58;;
66169;SDS011;52971;44.024;20.456;2022-10-16T15:47:37;37.75;;;24.85;;
66169;SDS011;52971;44.024;20.456;2022-10-16T15:50:03;28.92;;;22.88;;
66169;SDS011;52971;44.024;20.456;2022-10-16T15:52:29;31.55;;;23.08;;
66169;SDS011;52971;44.024;20.456;2022-10-16T15:54:56;41.38;;;27.60;;
66169;SDS011;52971;44.024;20.456;2022-10-16T15:57:22;34.55;;;24.52;;
66169;SDS011;52971;44.024;20.456;2022-10-16T15:59:49;30.88;;;22.75;;
66169;SDS011;52971;44.024;20.456;2022-10-16T16:02:14;28.42;;;20.05;;
66169;SDS011;52971;44.024;20.456;2022-10-16T16:04:40;33.75;;;20.45;;
66169;SDS011;52971;44.024;20.456;2022-10-16T16:07:06;26.98;;;18.85;;
66169;SDS011;52971;44.024;20.456;2022-10-16T16:09:35;30.27;;;20.63;;
66169;SDS011;52971;44.024;20.456;2022-10-16T16:12:01;41.88;;;29.45;;
66169;SDS011;52971;44.024;20.456;2022-10-16T16:14:27;35.60;;;25.58;;
66169;SDS011;52971;44.024;20.456;2022-10-16T16:16:53;50.58;;;38.78;;
66169;SDS011;52971;44.024;20.456;2022-10-16T16:19:19;58.65;;;42.47;;
66169;SDS011;52971;44.024;20.456;2022-10-16T16:21:46;55.63;;;42.65;;
66169;SDS011;52971;44.024;20.456;2022-10-16T16:24:12;59.78;;;48.92;;
66169;SDS011;52971;44.024;20.456;2022-10-16T16:26:38;71.80;;;56.13;;
66169;SDS011;52971;44.024;20.456;2022-10-16T16:29:08;65.72;;;50.97;;
66169;SDS011;52971;44.024;20.456;2022-10-16T16:31:37;56.75;;;43.78;;
66169;SDS011;52971;44.024;20.456;2022-10-16T16:34:04;55.65;;;41.83;;
66169;SDS011;52971;44.024;20.456;2022-10-16T16:36:29;53.90;;;41.70;;
66169;SDS011;52971;44.024;20.456;2022-10-16T16:38:55;52.13;;;40.15;;